createdAt,value
2023-12-02T00:02:18.557Z,2.70
2023-12-02T00:07:21.439Z,2.60
2023-12-02T00:12:25.728Z,2.60
2023-12-02T00:17:28.625Z,2.80
2023-12-02T00:22:31.499Z,2.90
2023-12-02T00:27:35.702Z,2.90
2023-12-02T00:32:38.556Z,2.90
2023-12-02T00:37:41.470Z,3.50
2023-12-02T00:42:45.652Z,3.30
2023-12-02T00:47:48.505Z,3.50
2023-12-02T00:52:51.319Z,2.90
2023-12-02T00:57:55.458Z,3.50
2023-12-02T01:02:58.298Z,3.00
2023-12-02T01:08:01.169Z,3.00
2023-12-02T01:13:05.377Z,2.80
2023-12-02T01:18:08.283Z,2.70
2023-12-02T01:23:11.177Z,2.90
2023-12-02T01:28:15.376Z,2.70
2023-12-02T01:33:18.313Z,3.00
2023-12-02T01:38:21.421Z,2.70
2023-12-02T01:43:27.848Z,2.40
2023-12-02T01:48:37.400Z,2.20
2023-12-02T01:53:40.743Z,2.40
2023-12-02T01:58:45.210Z,2.30
2023-12-02T02:03:50.045Z,2.40
2023-12-02T02:08:52.940Z,2.60
2023-12-02T02:13:57.114Z,2.60
2023-12-02T02:19:00.144Z,2.70
2023-12-02T02:24:04.434Z,2.70
2023-12-02T02:29:07.270Z,2.70
2023-12-02T02:34:10.124Z,2.60
2023-12-02T02:39:14.392Z,2.70
2023-12-02T02:44:17.227Z,2.70
2023-12-02T02:49:21.321Z,2.50
2023-12-02T02:54:25.650Z,2.50
2023-12-02T02:59:29.449Z,2.30
2023-12-02T03:04:32.254Z,2.80
2023-12-02T03:09:36.722Z,3.50
2023-12-02T03:14:39.792Z,3.20
2023-12-02T03:19:43.898Z,3.10
2023-12-02T03:24:48.078Z,3.70
2023-12-02T03:29:50.938Z,4.20
2023-12-02T03:34:53.785Z,4.30
2023-12-02T03:39:57.958Z,4.20
2023-12-02T03:45:00.893Z,4.10
2023-12-02T03:50:04.370Z,4.50
2023-12-02T03:55:09.446Z,3.80
2023-12-02T04:00:14.187Z,3.70
2023-12-02T04:05:17.075Z,3.90
2023-12-02T04:10:21.259Z,3.30
2023-12-02T04:15:24.188Z,3.70
2023-12-02T04:20:27.027Z,4.00
2023-12-02T04:25:31.215Z,3.40
2023-12-02T04:30:34.090Z,3.20
2023-12-02T04:35:37.647Z,3.00
2023-12-02T04:40:41.810Z,2.90
2023-12-02T04:45:44.796Z,2.90
2023-12-02T04:50:47.647Z,3.50
2023-12-02T04:55:53.699Z,3.70
2023-12-02T05:00:56.546Z,3.90
2023-12-02T05:05:59.468Z,3.60
2023-12-02T05:11:03.680Z,4.20
2023-12-02T05:16:07.822Z,3.60
2023-12-02T05:21:11.470Z,3.40
2023-12-02T05:26:16.753Z,4.20
2023-12-02T05:31:20.524Z,4.40
2023-12-02T05:36:23.361Z,4.60
2023-12-02T05:41:27.567Z,4.00
2023-12-02T05:46:30.761Z,3.80
2023-12-02T05:51:33.691Z,3.60
2023-12-02T05:56:37.920Z,3.40
2023-12-02T06:01:40.817Z,3.70
2023-12-02T06:06:47.393Z,3.30
2023-12-02T06:11:51.580Z,3.40
2023-12-02T06:16:54.448Z,3.60
2023-12-02T06:21:57.296Z,3.90
2023-12-02T06:27:01.607Z,4.20
2023-12-02T06:32:04.967Z,4.00
2023-12-02T06:37:07.822Z,4.40
2023-12-02T06:42:13.122Z,4.50
2023-12-02T06:47:16.630Z,4.70
2023-12-02T06:52:19.536Z,4.60
2023-12-02T06:57:23.729Z,4.40
2023-12-02T07:02:27.484Z,4.20
2023-12-02T07:07:30.355Z,3.90
2023-12-02T07:12:34.616Z,3.40
2023-12-02T07:17:37.520Z,4.00
2023-12-02T07:22:40.406Z,4.20
2023-12-02T07:27:44.604Z,3.80
2023-12-02T07:32:47.898Z,3.90
2023-12-02T07:37:50.753Z,3.50
2023-12-02T07:42:54.949Z,3.90
2023-12-02T07:47:58.675Z,3.80
2023-12-02T07:53:01.652Z,3.40
2023-12-02T07:58:05.901Z,3.70
2023-12-02T08:03:08.800Z,4.20
2023-12-02T08:08:11.935Z,4.10
2023-12-02T08:13:16.232Z,4.10
2023-12-02T08:18:21.754Z,4.30
2023-12-02T08:23:24.585Z,3.90
2023-12-02T08:28:28.824Z,3.60
2023-12-02T08:33:31.659Z,3.80
2023-12-02T08:38:35.956Z,3.50
2023-12-02T08:43:43.410Z,3.40
2023-12-02T08:48:46.778Z,4.10
2023-12-02T08:53:51.157Z,4.70
2023-12-02T08:58:55.788Z,4.80
2023-12-02T09:03:58.723Z,5.10
2023-12-02T09:09:01.708Z,5.20
2023-12-02T09:14:06.013Z,5.20
2023-12-02T09:19:52.311Z,5.20
2023-12-02T09:24:55.192Z,5.30
2023-12-02T09:29:59.346Z,5.00
2023-12-02T09:35:02.760Z,5.10
2023-12-02T09:40:37.519Z,5.10
2023-12-02T09:45:48.495Z,5.30
2023-12-02T09:51:02.339Z,5.20
2023-12-02T09:56:14.851Z,5.30
2023-12-02T10:01:37.255Z,5.40
2023-12-02T10:06:52.013Z,5.30
2023-12-02T10:12:07.053Z,5.30
2023-12-02T10:17:13.790Z,5.30
2023-12-02T10:22:19.881Z,5.20
2023-12-02T10:27:25.157Z,5.10
2023-12-02T10:32:35.078Z,5.30
2023-12-02T10:37:41.120Z,5.30
2023-12-02T10:42:58.427Z,5.40
2023-12-02T10:48:03.035Z,5.10
2023-12-02T10:53:07.025Z,5.00
2023-12-02T10:58:11.797Z,5.20
2023-12-02T11:03:23.429Z,5.30
2023-12-02T11:08:38.057Z,5.20
2023-12-02T11:13:41.093Z,5.30
2023-12-02T11:18:57.060Z,4.90
2023-12-02T11:24:07.552Z,5.10
2023-12-02T11:29:19.454Z,5.20
2023-12-02T11:34:34.780Z,5.10
2023-12-02T11:39:47.440Z,5.30
2023-12-02T11:45:04.038Z,5.50
2023-12-02T11:50:22.900Z,5.30
2023-12-02T11:55:34.072Z,5.30
2023-12-02T12:00:48.730Z,5.40
2023-12-02T12:06:03.547Z,5.60
2023-12-02T12:11:10.163Z,5.20
2023-12-02T12:16:13.069Z,5.40
2023-12-02T12:21:17.284Z,5.60
2023-12-02T12:26:20.351Z,5.60
2023-12-02T12:31:23.380Z,5.50
2023-12-02T12:36:30.709Z,5.50
2023-12-02T12:41:33.723Z,5.40
2023-12-02T12:46:36.899Z,5.50
2023-12-02T12:51:44.274Z,5.70
2023-12-02T12:56:48.756Z,5.80
2023-12-02T13:02:00.028Z,5.80
2023-12-02T13:07:11.851Z,5.90
2023-12-02T13:12:19.849Z,5.90
2023-12-02T13:17:23.463Z,5.90
2023-12-02T13:22:29.853Z,5.90
2023-12-02T13:27:38.275Z,5.80
2023-12-02T13:32:44.856Z,5.80
2023-12-02T13:38:03.595Z,5.70
2023-12-02T13:43:12.549Z,5.70
2023-12-02T13:48:23.672Z,5.80
2023-12-02T13:53:37.003Z,5.80
2023-12-02T13:58:42.657Z,5.70
2023-12-02T14:03:56.132Z,5.70
2023-12-02T14:09:08.159Z,5.70
2023-12-02T14:14:33.050Z,5.80
2023-12-02T14:20:10.265Z,5.80
2023-12-02T14:25:26.967Z,5.70
2023-12-02T14:30:55.062Z,5.70
2023-12-02T14:36:02.288Z,5.70
2023-12-02T14:41:20.755Z,5.60
2023-12-02T14:46:23.623Z,5.70
2023-12-02T14:51:26.933Z,5.60
2023-12-02T14:56:48.914Z,5.40
2023-12-02T15:01:55.852Z,5.60
2023-12-02T15:06:59.115Z,5.70
2023-12-02T15:12:06.302Z,5.60
2023-12-02T15:17:10.477Z,5.60
2023-12-02T15:22:20.229Z,5.60
2023-12-02T15:27:24.912Z,5.60
2023-12-02T15:32:27.786Z,5.40
2023-12-02T15:37:31.200Z,5.40
2023-12-02T15:42:35.460Z,5.40
2023-12-02T15:47:38.364Z,5.50
2023-12-02T15:52:41.273Z,5.70
2023-12-02T15:57:45.928Z,5.50
2023-12-02T16:02:49.670Z,5.20
2023-12-02T16:07:52.562Z,4.80
2023-12-02T16:12:57.851Z,4.50
2023-12-02T16:18:01.553Z,4.70
2023-12-02T16:23:04.661Z,4.80
2023-12-02T16:28:08.988Z,4.70
2023-12-02T16:33:11.940Z,4.50
2023-12-02T16:38:16.186Z,4.70
2023-12-02T16:43:21.697Z,4.80
2023-12-02T16:48:25.351Z,4.90
2023-12-02T16:53:28.255Z,4.80
2023-12-02T16:58:36.486Z,4.70
2023-12-02T17:03:40.972Z,4.60
2023-12-02T17:08:44.835Z,4.60
2023-12-02T17:13:52.032Z,4.80
2023-12-02T17:19:09.049Z,4.80
2023-12-02T17:24:19.069Z,4.80
2023-12-02T17:29:26.296Z,4.90
2023-12-02T17:34:31.371Z,5.20
2023-12-02T17:39:34.288Z,5.20
2023-12-02T17:44:38.512Z,5.30
2023-12-02T17:49:41.395Z,5.40
2023-12-02T17:54:44.286Z,5.30
2023-12-02T17:59:48.480Z,5.30
2023-12-02T18:04:51.415Z,5.20
2023-12-02T18:09:54.295Z,5.20
2023-12-02T18:14:58.504Z,5.10
2023-12-02T18:20:01.826Z,5.30
2023-12-02T18:25:04.973Z,5.20
2023-12-02T18:30:10.478Z,5.30
2023-12-02T18:35:13.304Z,5.40
2023-12-02T18:40:16.850Z,5.40
2023-12-02T18:45:21.245Z,5.10
2023-12-02T18:50:24.092Z,5.20
2023-12-02T18:55:26.908Z,5.30
2023-12-02T19:00:31.473Z,5.30
2023-12-02T19:05:34.347Z,5.40
2023-12-02T19:10:37.212Z,5.40
2023-12-02T19:15:41.563Z,5.50
2023-12-02T19:20:44.409Z,5.30
2023-12-02T19:25:47.353Z,5.30
2023-12-02T19:30:51.625Z,5.30
2023-12-02T19:35:54.487Z,5.40
2023-12-02T19:40:57.313Z,5.50
2023-12-02T19:46:01.491Z,5.40
2023-12-02T19:51:06.407Z,5.40
2023-12-02T19:56:15.504Z,5.40
2023-12-02T20:01:20.521Z,5.40
2023-12-02T20:06:23.426Z,5.50
2023-12-02T20:11:43.805Z,5.50
2023-12-02T20:16:50.292Z,5.30
2023-12-02T20:21:53.081Z,5.40
2023-12-02T20:26:56.174Z,5.30
2023-12-02T20:32:00.506Z,5.40
2023-12-02T20:37:03.484Z,5.30
2023-12-02T20:42:06.749Z,5.40
2023-12-02T20:47:11.035Z,5.50
2023-12-02T20:52:13.966Z,5.50
2023-12-02T20:57:17.003Z,5.20
2023-12-02T21:02:21.222Z,5.30
2023-12-02T21:07:24.025Z,5.30
2023-12-02T21:12:29.359Z,5.40
2023-12-02T21:17:35.726Z,5.60
2023-12-02T21:22:38.577Z,5.50
2023-12-02T21:27:45.048Z,5.40
2023-12-02T21:32:49.317Z,5.20
2023-12-02T21:37:52.210Z,5.40
2023-12-02T21:42:55.428Z,5.30
2023-12-02T21:47:59.602Z,5.20
2023-12-02T21:53:02.450Z,5.20
2023-12-02T21:58:05.270Z,5.10
2023-12-02T22:03:09.463Z,5.20
2023-12-02T22:08:12.556Z,5.10
2023-12-02T22:13:21.515Z,5.10
2023-12-02T22:18:25.713Z,5.30
2023-12-02T22:23:28.574Z,5.30
2023-12-02T22:28:31.433Z,5.00
2023-12-02T22:33:35.743Z,5.00
2023-12-02T22:38:40.000Z,5.00
2023-12-02T22:43:44.802Z,4.70
2023-12-02T22:48:51.259Z,4.90
2023-12-02T22:53:55.414Z,4.70
2023-12-02T22:58:58.398Z,5.10
2023-12-02T23:04:13.538Z,5.10
2023-12-02T23:09:37.078Z,5.30
2023-12-02T23:14:43.123Z,5.20
2023-12-02T23:19:47.641Z,5.10
2023-12-02T23:24:50.605Z,5.00
2023-12-02T23:29:53.536Z,4.80
2023-12-02T23:34:57.849Z,5.00
2023-12-02T23:40:01.008Z,5.00
2023-12-02T23:45:04.747Z,5.30
2023-12-02T23:50:10.322Z,5.30
2023-12-02T23:55:14.133Z,5.30
